sensor_id;sensor_type;location;lat;lon;timestamp;P1;durP1;ratioP1;P2;durP2;ratioP2
54412;SDS011;41533;51.390;0.074;2023-03-31T00:01:11;2.60;;;0.98;;
54412;SDS011;41533;51.390;0.074;2023-03-31T00:03:38;4.97;;;1.45;;
54412;SDS011;41533;51.390;0.074;2023-03-31T00:06:11;7.25;;;1.13;;
54412;SDS011;41533;51.390;0.074;2023-03-31T00:08:45;7.57;;;1.23;;
54412;SDS011;41533;51.390;0.074;2023-03-31T00:11:13;6.97;;;1.92;;
54412;SDS011;41533;51.390;0.074;2023-03-31T00:13:40;5.40;;;1.50;;
54412;SDS011;41533;51.390;0.074;2023-03-31T00:16:08;6.22;;;1.52;;
54412;SDS011;41533;51.390;0.074;2023-03-31T00:18:36;6.25;;;1.10;;
54412;SDS011;41533;51.390;0.074;2023-03-31T00:21:07;8.32;;;1.33;;
54412;SDS011;41533;51.390;0.074;2023-03-31T00:23:34;4.65;;;1.35;;
54412;SDS011;41533;51.390;0.074;2023-03-31T00:26:02;2.50;;;1.10;;
54412;SDS011;41533;51.390;0.074;2023-03-31T00:28:29;2.45;;;1.17;;
54412;SDS011;41533;51.390;0.074;2023-03-31T00:31:00;9.18;;;1.67;;
54412;SDS011;41533;51.390;0.074;2023-03-31T00:33:28;4.43;;;1.30;;
54412;SDS011;41533;51.390;0.074;2023-03-31T00:35:55;4.53;;;0.95;;
54412;SDS011;41533;51.390;0.074;2023-03-31T00:38:23;5.38;;;1.58;;
54412;SDS011;41533;51.390;0.074;2023-03-31T00:40:51;4.75;;;1.30;;
54412;SDS011;41533;51.390;0.074;2023-03-31T00:43:30;3.30;;;1.27;;
54412;SDS011;41533;51.390;0.074;2023-03-31T00:46:03;4.13;;;1.08;;
54412;SDS011;41533;51.390;0.074;2023-03-31T00:48:31;1.98;;;0.82;;
54412;SDS011;41533;51.390;0.074;2023-03-31T00:50:58;7.65;;;1.30;;
54412;SDS011;41533;51.390;0.074;2023-03-31T00:53:29;2.08;;;0.80;;
54412;SDS011;41533;51.390;0.074;2023-03-31T00:55:58;2.65;;;1.10;;
54412;SDS011;41533;51.390;0.074;2023-03-31T00:58:28;5.10;;;1.08;;
54412;SDS011;41533;51.390;0.074;2023-03-31T01:00:56;8.77;;;1.55;;
54412;SDS011;41533;51.390;0.074;2023-03-31T01:03:23;4.00;;;0.85;;
54412;SDS011;41533;51.390;0.074;2023-03-31T01:05:52;4.70;;;1.17;;
54412;SDS011;41533;51.390;0.074;2023-03-31T01:08:21;4.10;;;1.10;;
54412;SDS011;41533;51.390;0.074;2023-03-31T01:10:51;2.85;;;1.40;;
54412;SDS011;41533;51.390;0.074;2023-03-31T01:13:20;1.85;;;0.80;;
54412;SDS011;41533;51.390;0.074;2023-03-31T01:15:47;3.28;;;1.23;;
54412;SDS011;41533;51.390;0.074;2023-03-31T01:18:14;5.30;;;1.33;;
54412;SDS011;41533;51.390;0.074;2023-03-31T01:24:17;3.13;;;0.82;;
54412;SDS011;41533;51.390;0.074;2023-03-31T01:39:29;5.85;;;1.35;;
54412;SDS011;41533;51.390;0.074;2023-03-31T01:47:05;2.30;;;0.80;;
54412;SDS011;41533;51.390;0.074;2023-03-31T01:49:42;3.42;;;0.95;;
54412;SDS011;41533;51.390;0.074;2023-03-31T01:52:17;3.28;;;1.02;;
54412;SDS011;41533;51.390;0.074;2023-03-31T01:57:14;2.30;;;0.98;;
54412;SDS011;41533;51.390;0.074;2023-03-31T01:59:53;2.30;;;0.82;;
54412;SDS011;41533;51.390;0.074;2023-03-31T02:02:34;2.83;;;1.20;;
54412;SDS011;41533;51.390;0.074;2023-03-31T02:05:08;4.93;;;1.40;;
54412;SDS011;41533;51.390;0.074;2023-03-31T02:07:38;4.38;;;1.48;;
54412;SDS011;41533;51.390;0.074;2023-03-31T02:10:07;2.55;;;1.05;;
54412;SDS011;41533;51.390;0.074;2023-03-31T02:12:35;4.95;;;1.13;;
54412;SDS011;41533;51.390;0.074;2023-03-31T02:15:04;4.03;;;1.10;;
54412;SDS011;41533;51.390;0.074;2023-03-31T02:17:36;6.13;;;2.03;;
54412;SDS011;41533;51.390;0.074;2023-03-31T02:20:08;3.28;;;1.20;;
54412;SDS011;41533;51.390;0.074;2023-03-31T02:22:38;5.28;;;1.52;;
54412;SDS011;41533;51.390;0.074;2023-03-31T02:25:07;9.05;;;1.73;;
54412;SDS011;41533;51.390;0.074;2023-03-31T02:27:39;4.10;;;1.17;;
54412;SDS011;41533;51.390;0.074;2023-03-31T02:30:08;5.30;;;1.13;;
54412;SDS011;41533;51.390;0.074;2023-03-31T02:32:37;6.30;;;1.55;;
54412;SDS011;41533;51.390;0.074;2023-03-31T02:35:05;4.88;;;1.55;;
54412;SDS011;41533;51.390;0.074;2023-03-31T02:37:33;7.15;;;1.42;;
54412;SDS011;41533;51.390;0.074;2023-03-31T02:40:02;4.90;;;1.13;;
54412;SDS011;41533;51.390;0.074;2023-03-31T02:42:39;6.75;;;1.38;;
54412;SDS011;41533;51.390;0.074;2023-03-31T02:47:53;6.40;;;1.38;;
54412;SDS011;41533;51.390;0.074;2023-03-31T02:50:21;4.32;;;0.65;;
54412;SDS011;41533;51.390;0.074;2023-03-31T02:52:53;6.45;;;1.85;;
54412;SDS011;41533;51.390;0.074;2023-03-31T02:55:24;8.32;;;1.45;;
54412;SDS011;41533;51.390;0.074;2023-03-31T02:58:13;12.48;;;2.25;;
54412;SDS011;41533;51.390;0.074;2023-03-31T03:00:59;10.18;;;2.47;;
54412;SDS011;41533;51.390;0.074;2023-03-31T03:06:07;3.65;;;1.27;;
54412;SDS011;41533;51.390;0.074;2023-03-31T03:09:05;13.60;;;2.55;;
54412;SDS011;41533;51.390;0.074;2023-03-31T03:16:40;14.80;;;3.13;;
54412;SDS011;41533;51.390;0.074;2023-03-31T03:19:08;7.10;;;1.80;;
54412;SDS011;41533;51.390;0.074;2023-03-31T03:21:36;12.75;;;2.22;;
54412;SDS011;41533;51.390;0.074;2023-03-31T03:24:03;6.97;;;2.00;;
54412;SDS011;41533;51.390;0.074;2023-03-31T03:26:31;10.52;;;2.30;;
54412;SDS011;41533;51.390;0.074;2023-03-31T03:29:01;12.18;;;2.60;;
54412;SDS011;41533;51.390;0.074;2023-03-31T03:31:28;14.45;;;3.50;;
54412;SDS011;41533;51.390;0.074;2023-03-31T03:33:56;8.90;;;2.50;;
54412;SDS011;41533;51.390;0.074;2023-03-31T03:36:24;17.85;;;3.08;;
54412;SDS011;41533;51.390;0.074;2023-03-31T03:38:52;8.65;;;2.70;;
54412;SDS011;41533;51.390;0.074;2023-03-31T03:41:19;12.15;;;3.03;;
54412;SDS011;41533;51.390;0.074;2023-03-31T03:43:46;13.68;;;2.50;;
54412;SDS011;41533;51.390;0.074;2023-03-31T03:46:14;14.85;;;2.78;;
54412;SDS011;41533;51.390;0.074;2023-03-31T03:48:41;9.77;;;2.25;;
54412;SDS011;41533;51.390;0.074;2023-03-31T03:51:08;9.82;;;2.90;;
54412;SDS011;41533;51.390;0.074;2023-03-31T03:53:36;11.02;;;2.42;;
54412;SDS011;41533;51.390;0.074;2023-03-31T03:56:03;13.20;;;2.28;;
54412;SDS011;41533;51.390;0.074;2023-03-31T03:58:30;6.13;;;1.85;;
54412;SDS011;41533;51.390;0.074;2023-03-31T04:00:57;9.02;;;2.42;;
54412;SDS011;41533;51.390;0.074;2023-03-31T04:03:25;9.52;;;2.33;;
54412;SDS011;41533;51.390;0.074;2023-03-31T04:05:52;11.93;;;2.35;;
54412;SDS011;41533;51.390;0.074;2023-03-31T04:08:19;14.23;;;3.20;;
54412;SDS011;41533;51.390;0.074;2023-03-31T04:10:47;11.13;;;2.42;;
54412;SDS011;41533;51.390;0.074;2023-03-31T04:13:16;9.32;;;2.88;;
54412;SDS011;41533;51.390;0.074;2023-03-31T04:15:44;9.43;;;2.25;;
54412;SDS011;41533;51.390;0.074;2023-03-31T04:18:11;14.63;;;2.72;;
54412;SDS011;41533;51.390;0.074;2023-03-31T04:20:49;13.60;;;2.55;;
54412;SDS011;41533;51.390;0.074;2023-03-31T04:23:21;10.00;;;1.88;;
54412;SDS011;41533;51.390;0.074;2023-03-31T04:25:49;8.57;;;2.00;;
54412;SDS011;41533;51.390;0.074;2023-03-31T04:28:17;9.02;;;2.00;;
54412;SDS011;41533;51.390;0.074;2023-03-31T04:30:44;10.75;;;2.00;;
54412;SDS011;41533;51.390;0.074;2023-03-31T04:33:11;8.95;;;2.47;;
54412;SDS011;41533;51.390;0.074;2023-03-31T04:35:41;6.45;;;1.95;;
54412;SDS011;41533;51.390;0.074;2023-03-31T04:38:16;6.88;;;1.90;;
54412;SDS011;41533;51.390;0.074;2023-03-31T04:40:50;6.47;;;1.83;;
54412;SDS011;41533;51.390;0.074;2023-03-31T04:43:18;8.70;;;1.95;;
54412;SDS011;41533;51.390;0.074;2023-03-31T04:45:45;5.43;;;1.50;;
54412;SDS011;41533;51.390;0.074;2023-03-31T04:48:13;6.72;;;1.98;;
54412;SDS011;41533;51.390;0.074;2023-03-31T04:50:40;9.20;;;2.20;;
54412;SDS011;41533;51.390;0.074;2023-03-31T04:53:07;6.25;;;1.52;;
54412;SDS011;41533;51.390;0.074;2023-03-31T04:55:34;8.73;;;2.35;;
54412;SDS011;41533;51.390;0.074;2023-03-31T04:58:02;5.78;;;1.58;;
54412;SDS011;41533;51.390;0.074;2023-03-31T05:00:29;10.65;;;1.88;;
54412;SDS011;41533;51.390;0.074;2023-03-31T05:02:57;5.57;;;1.25;;
54412;SDS011;41533;51.390;0.074;2023-03-31T05:05:25;3.38;;;1.08;;
54412;SDS011;41533;51.390;0.074;2023-03-31T05:07:53;7.13;;;1.88;;
54412;SDS011;41533;51.390;0.074;2023-03-31T05:10:20;6.78;;;1.52;;
54412;SDS011;41533;51.390;0.074;2023-03-31T05:12:47;6.22;;;1.20;;
54412;SDS011;41533;51.390;0.074;2023-03-31T05:15:15;3.10;;;1.20;;
54412;SDS011;41533;51.390;0.074;2023-03-31T05:17:42;4.78;;;1.23;;
54412;SDS011;41533;51.390;0.074;2023-03-31T05:20:10;8.10;;;1.70;;
54412;SDS011;41533;51.390;0.074;2023-03-31T05:22:38;4.45;;;1.88;;
54412;SDS011;41533;51.390;0.074;2023-03-31T05:25:07;8.20;;;1.83;;
54412;SDS011;41533;51.390;0.074;2023-03-31T05:27:34;4.15;;;1.02;;
54412;SDS011;41533;51.390;0.074;2023-03-31T05:30:02;2.85;;;0.95;;
54412;SDS011;41533;51.390;0.074;2023-03-31T05:32:30;2.53;;;0.70;;
54412;SDS011;41533;51.390;0.074;2023-03-31T05:34:57;4.07;;;1.10;;
54412;SDS011;41533;51.390;0.074;2023-03-31T05:37:25;3.97;;;1.33;;
54412;SDS011;41533;51.390;0.074;2023-03-31T05:39:53;6.35;;;1.42;;
54412;SDS011;41533;51.390;0.074;2023-03-31T05:42:20;1.67;;;0.93;;
54412;SDS011;41533;51.390;0.074;2023-03-31T05:44:47;3.13;;;0.95;;
54412;SDS011;41533;51.390;0.074;2023-03-31T05:47:14;4.65;;;1.05;;
54412;SDS011;41533;51.390;0.074;2023-03-31T05:49:42;3.08;;;1.02;;
54412;SDS011;41533;51.390;0.074;2023-03-31T05:52:09;4.95;;;1.33;;
54412;SDS011;41533;51.390;0.074;2023-03-31T05:54:37;1.95;;;1.13;;
54412;SDS011;41533;51.390;0.074;2023-03-31T05:57:04;9.50;;;2.08;;
54412;SDS011;41533;51.390;0.074;2023-03-31T05:59:31;4.00;;;1.25;;
54412;SDS011;41533;51.390;0.074;2023-03-31T06:02:01;5.53;;;1.27;;
54412;SDS011;41533;51.390;0.074;2023-03-31T06:04:28;3.30;;;1.42;;
54412;SDS011;41533;51.390;0.074;2023-03-31T06:06:57;6.75;;;1.38;;
54412;SDS011;41533;51.390;0.074;2023-03-31T06:09:25;3.38;;;1.10;;
54412;SDS011;41533;51.390;0.074;2023-03-31T06:11:52;5.47;;;1.20;;
54412;SDS011;41533;51.390;0.074;2023-03-31T06:14:19;9.77;;;1.85;;
54412;SDS011;41533;51.390;0.074;2023-03-31T06:16:46;5.82;;;1.73;;
54412;SDS011;41533;51.390;0.074;2023-03-31T06:19:14;6.18;;;1.70;;
54412;SDS011;41533;51.390;0.074;2023-03-31T06:21:41;7.38;;;1.17;;
54412;SDS011;41533;51.390;0.074;2023-03-31T06:24:08;6.00;;;1.30;;
54412;SDS011;41533;51.390;0.074;2023-03-31T06:26:36;4.47;;;1.42;;
54412;SDS011;41533;51.390;0.074;2023-03-31T06:29:03;6.57;;;1.30;;
54412;SDS011;41533;51.390;0.074;2023-03-31T06:31:30;3.50;;;1.20;;
54412;SDS011;41533;51.390;0.074;2023-03-31T06:33:58;6.43;;;1.65;;
54412;SDS011;41533;51.390;0.074;2023-03-31T06:36:25;7.50;;;1.83;;
54412;SDS011;41533;51.390;0.074;2023-03-31T06:38:52;5.53;;;1.20;;
54412;SDS011;41533;51.390;0.074;2023-03-31T06:41:20;6.95;;;1.42;;
54412;SDS011;41533;51.390;0.074;2023-03-31T06:43:48;5.00;;;1.27;;
54412;SDS011;41533;51.390;0.074;2023-03-31T06:46:16;6.93;;;1.65;;
54412;SDS011;41533;51.390;0.074;2023-03-31T06:48:44;10.68;;;1.80;;
54412;SDS011;41533;51.390;0.074;2023-03-31T06:51:11;9.98;;;1.77;;
54412;SDS011;41533;51.390;0.074;2023-03-31T06:53:39;7.13;;;1.55;;
54412;SDS011;41533;51.390;0.074;2023-03-31T06:56:06;10.25;;;1.73;;
54412;SDS011;41533;51.390;0.074;2023-03-31T06:58:33;8.80;;;1.90;;
54412;SDS011;41533;51.390;0.074;2023-03-31T07:01:01;5.97;;;1.25;;
54412;SDS011;41533;51.390;0.074;2023-03-31T07:03:29;10.45;;;1.88;;
54412;SDS011;41533;51.390;0.074;2023-03-31T07:05:57;10.57;;;1.50;;
54412;SDS011;41533;51.390;0.074;2023-03-31T07:08:24;7.28;;;1.75;;
54412;SDS011;41533;51.390;0.074;2023-03-31T07:10:56;5.50;;;1.90;;
54412;SDS011;41533;51.390;0.074;2023-03-31T07:13:24;10.07;;;1.75;;
54412;SDS011;41533;51.390;0.074;2023-03-31T07:15:51;10.88;;;2.35;;
54412;SDS011;41533;51.390;0.074;2023-03-31T07:18:19;8.00;;;2.42;;
54412;SDS011;41533;51.390;0.074;2023-03-31T07:20:47;7.35;;;1.90;;
54412;SDS011;41533;51.390;0.074;2023-03-31T07:23:15;9.68;;;1.70;;
54412;SDS011;41533;51.390;0.074;2023-03-31T07:25:42;10.02;;;2.13;;
54412;SDS011;41533;51.390;0.074;2023-03-31T07:28:10;7.50;;;1.95;;
54412;SDS011;41533;51.390;0.074;2023-03-31T07:30:37;7.25;;;2.13;;
54412;SDS011;41533;51.390;0.074;2023-03-31T07:33:05;9.65;;;2.42;;
54412;SDS011;41533;51.390;0.074;2023-03-31T07:35:36;11.85;;;2.30;;
54412;SDS011;41533;51.390;0.074;2023-03-31T07:38:03;10.38;;;2.20;;
54412;SDS011;41533;51.390;0.074;2023-03-31T07:40:30;9.15;;;2.00;;
54412;SDS011;41533;51.390;0.074;2023-03-31T07:42:57;7.53;;;2.17;;
54412;SDS011;41533;51.390;0.074;2023-03-31T07:45:25;9.88;;;2.17;;
54412;SDS011;41533;51.390;0.074;2023-03-31T07:47:53;18.35;;;2.75;;
54412;SDS011;41533;51.390;0.074;2023-03-31T07:50:21;5.20;;;1.50;;
54412;SDS011;41533;51.390;0.074;2023-03-31T07:52:50;10.02;;;2.58;;
54412;SDS011;41533;51.390;0.074;2023-03-31T07:55:18;11.18;;;2.22;;
54412;SDS011;41533;51.390;0.074;2023-03-31T07:57:46;11.68;;;1.83;;
54412;SDS011;41533;51.390;0.074;2023-03-31T08:00:14;9.32;;;2.28;;
54412;SDS011;41533;51.390;0.074;2023-03-31T08:02:42;7.65;;;2.20;;
54412;SDS011;41533;51.390;0.074;2023-03-31T08:05:10;11.05;;;2.80;;
54412;SDS011;41533;51.390;0.074;2023-03-31T08:07:38;8.85;;;2.53;;
54412;SDS011;41533;51.390;0.074;2023-03-31T08:10:07;7.90;;;3.10;;
54412;SDS011;41533;51.390;0.074;2023-03-31T08:12:34;15.68;;;3.50;;
54412;SDS011;41533;51.390;0.074;2023-03-31T08:15:02;10.23;;;2.38;;
54412;SDS011;41533;51.390;0.074;2023-03-31T08:17:29;14.57;;;2.78;;
54412;SDS011;41533;51.390;0.074;2023-03-31T08:19:57;6.47;;;2.03;;
54412;SDS011;41533;51.390;0.074;2023-03-31T08:22:27;10.73;;;2.63;;
54412;SDS011;41533;51.390;0.074;2023-03-31T08:24:54;8.48;;;1.83;;
54412;SDS011;41533;51.390;0.074;2023-03-31T08:27:22;12.95;;;2.15;;
54412;SDS011;41533;51.390;0.074;2023-03-31T08:29:49;11.98;;;2.67;;
54412;SDS011;41533;51.390;0.074;2023-03-31T08:32:16;10.63;;;2.83;;
54412;SDS011;41533;51.390;0.074;2023-03-31T08:34:43;20.83;;;2.72;;
54412;SDS011;41533;51.390;0.074;2023-03-31T08:37:12;13.98;;;2.88;;
54412;SDS011;41533;51.390;0.074;2023-03-31T08:39:40;7.80;;;2.50;;
54412;SDS011;41533;51.390;0.074;2023-03-31T08:42:10;10.13;;;2.33;;
54412;SDS011;41533;51.390;0.074;2023-03-31T08:44:46;7.80;;;2.35;;
54412;SDS011;41533;51.390;0.074;2023-03-31T08:47:17;8.55;;;3.35;;
54412;SDS011;41533;51.390;0.074;2023-03-31T08:49:48;11.65;;;1.85;;
54412;SDS011;41533;51.390;0.074;2023-03-31T08:52:18;14.13;;;1.88;;
54412;SDS011;41533;51.390;0.074;2023-03-31T08:54:50;10.13;;;1.83;;
54412;SDS011;41533;51.390;0.074;2023-03-31T08:57:19;14.70;;;1.85;;
54412;SDS011;41533;51.390;0.074;2023-03-31T08:59:48;8.38;;;2.20;;
54412;SDS011;41533;51.390;0.074;2023-03-31T09:10:46;8.13;;;1.92;;
54412;SDS011;41533;51.390;0.074;2023-03-31T09:13:23;11.02;;;2.05;;
54412;SDS011;41533;51.390;0.074;2023-03-31T09:16:04;10.05;;;2.17;;
54412;SDS011;41533;51.390;0.074;2023-03-31T09:18:35;11.35;;;2.90;;
54412;SDS011;41533;51.390;0.074;2023-03-31T09:21:06;11.10;;;2.25;;
54412;SDS011;41533;51.390;0.074;2023-03-31T09:23:35;4.60;;;1.85;;
54412;SDS011;41533;51.390;0.074;2023-03-31T09:26:04;10.75;;;2.05;;
54412;SDS011;41533;51.390;0.074;2023-03-31T09:28:36;10.90;;;1.85;;
54412;SDS011;41533;51.390;0.074;2023-03-31T09:31:15;5.97;;;1.90;;
54412;SDS011;41533;51.390;0.074;2023-03-31T09:33:44;9.48;;;2.20;;
54412;SDS011;41533;51.390;0.074;2023-03-31T09:36:18;14.88;;;2.28;;
54412;SDS011;41533;51.390;0.074;2023-03-31T09:38:48;12.63;;;2.35;;
54412;SDS011;41533;51.390;0.074;2023-03-31T09:41:16;5.07;;;2.08;;
54412;SDS011;41533;51.390;0.074;2023-03-31T09:43:45;10.63;;;1.98;;
54412;SDS011;41533;51.390;0.074;2023-03-31T09:46:17;8.73;;;2.30;;
54412;SDS011;41533;51.390;0.074;2023-03-31T09:48:50;6.10;;;1.52;;
54412;SDS011;41533;51.390;0.074;2023-03-31T09:51:19;12.35;;;3.35;;
54412;SDS011;41533;51.390;0.074;2023-03-31T09:53:57;10.52;;;2.75;;
54412;SDS011;41533;51.390;0.074;2023-03-31T09:56:33;2.75;;;1.45;;
54412;SDS011;41533;51.390;0.074;2023-03-31T09:59:17;7.63;;;2.38;;
54412;SDS011;41533;51.390;0.074;2023-03-31T10:01:45;12.43;;;2.50;;
54412;SDS011;41533;51.390;0.074;2023-03-31T10:04:23;7.20;;;1.73;;
54412;SDS011;41533;51.390;0.074;2023-03-31T10:06:51;8.10;;;1.92;;
54412;SDS011;41533;51.390;0.074;2023-03-31T10:09:29;14.70;;;1.80;;
54412;SDS011;41533;51.390;0.074;2023-03-31T10:12:02;8.07;;;2.58;;
54412;SDS011;41533;51.390;0.074;2023-03-31T10:17:11;9.13;;;2.13;;
54412;SDS011;41533;51.390;0.074;2023-03-31T10:19:42;6.65;;;1.75;;
54412;SDS011;41533;51.390;0.074;2023-03-31T10:22:25;8.05;;;2.33;;
54412;SDS011;41533;51.390;0.074;2023-03-31T10:24:53;6.38;;;1.90;;
54412;SDS011;41533;51.390;0.074;2023-03-31T10:27:30;12.80;;;1.83;;
54412;SDS011;41533;51.390;0.074;2023-03-31T10:29:58;6.65;;;1.60;;
54412;SDS011;41533;51.390;0.074;2023-03-31T10:32:27;14.95;;;3.42;;
54412;SDS011;41533;51.390;0.074;2023-03-31T10:34:55;11.48;;;2.25;;
54412;SDS011;41533;51.390;0.074;2023-03-31T10:37:26;8.25;;;2.72;;
54412;SDS011;41533;51.390;0.074;2023-03-31T10:39:58;6.53;;;2.05;;
54412;SDS011;41533;51.390;0.074;2023-03-31T10:42:26;12.70;;;2.95;;
54412;SDS011;41533;51.390;0.074;2023-03-31T10:45:11;5.97;;;1.40;;
54412;SDS011;41533;51.390;0.074;2023-03-31T10:47:47;4.90;;;1.85;;
54412;SDS011;41533;51.390;0.074;2023-03-31T10:50:15;14.68;;;2.13;;
54412;SDS011;41533;51.390;0.074;2023-03-31T10:52:44;5.00;;;1.73;;
54412;SDS011;41533;51.390;0.074;2023-03-31T10:55:13;10.45;;;1.65;;
54412;SDS011;41533;51.390;0.074;2023-03-31T10:57:57;5.68;;;2.20;;
54412;SDS011;41533;51.390;0.074;2023-03-31T11:00:27;6.82;;;2.08;;
54412;SDS011;41533;51.390;0.074;2023-03-31T11:14:00;4.65;;;1.30;;
54412;SDS011;41533;51.390;0.074;2023-03-31T11:26:48;2.88;;;0.90;;
54412;SDS011;41533;51.390;0.074;2023-03-31T11:29:24;4.05;;;1.20;;
54412;SDS011;41533;51.390;0.074;2023-03-31T11:42:36;3.53;;;0.70;;
54412;SDS011;41533;51.390;0.074;2023-03-31T11:45:14;0.70;;;0.70;;
54412;SDS011;41533;51.390;0.074;2023-03-31T11:47:42;1.60;;;0.70;;
54412;SDS011;41533;51.390;0.074;2023-03-31T11:50:17;0.40;;;0.40;;
54412;SDS011;41533;51.390;0.074;2023-03-31T11:52:57;1.33;;;0.68;;
54412;SDS011;41533;51.390;0.074;2023-03-31T11:55:27;2.67;;;0.60;;
54412;SDS011;41533;51.390;0.074;2023-03-31T12:00:29;1.13;;;0.90;;
54412;SDS011;41533;51.390;0.074;2023-03-31T12:05:26;1.17;;;0.50;;
54412;SDS011;41533;51.390;0.074;2023-03-31T12:08:08;2.38;;;0.65;;
54412;SDS011;41533;51.390;0.074;2023-03-31T12:10:40;0.75;;;0.40;;
54412;SDS011;41533;51.390;0.074;2023-03-31T12:15:40;1.67;;;0.63;;
54412;SDS011;41533;51.390;0.074;2023-03-31T12:23:12;1.52;;;0.70;;
54412;SDS011;41533;51.390;0.074;2023-03-31T12:25:43;1.42;;;0.70;;
54412;SDS011;41533;51.390;0.074;2023-03-31T12:28:11;2.10;;;0.70;;
54412;SDS011;41533;51.390;0.074;2023-03-31T12:30:40;1.15;;;0.73;;
54412;SDS011;41533;51.390;0.074;2023-03-31T12:43:30;1.58;;;0.68;;
54412;SDS011;41533;51.390;0.074;2023-03-31T12:51:19;2.47;;;0.77;;
54412;SDS011;41533;51.390;0.074;2023-03-31T12:56:15;0.77;;;0.45;;
54412;SDS011;41533;51.390;0.074;2023-03-31T12:58:43;1.25;;;0.60;;
54412;SDS011;41533;51.390;0.074;2023-03-31T13:03:53;0.55;;;0.50;;
54412;SDS011;41533;51.390;0.074;2023-03-31T13:08:55;1.52;;;0.68;;
54412;SDS011;41533;51.390;0.074;2023-03-31T13:13:59;3.28;;;0.80;;
54412;SDS011;41533;51.390;0.074;2023-03-31T13:16:28;1.17;;;0.70;;
54412;SDS011;41533;51.390;0.074;2023-03-31T13:18:56;0.60;;;0.55;;
54412;SDS011;41533;51.390;0.074;2023-03-31T13:21:23;0.65;;;0.57;;
54412;SDS011;41533;51.390;0.074;2023-03-31T13:23:51;1.65;;;0.93;;
54412;SDS011;41533;51.390;0.074;2023-03-31T13:27:23;4.30;;;0.57;;
54412;SDS011;41533;51.390;0.074;2023-03-31T13:39:26;1.85;;;0.45;;
54412;SDS011;41533;51.390;0.074;2023-03-31T13:45:08;0.98;;;0.60;;
54412;SDS011;41533;51.390;0.074;2023-03-31T13:50:28;1.33;;;0.70;;
54412;SDS011;41533;51.390;0.074;2023-03-31T13:55:47;0.85;;;0.60;;
54412;SDS011;41533;51.390;0.074;2023-03-31T13:58:30;1.20;;;0.50;;
54412;SDS011;41533;51.390;0.074;2023-03-31T14:03:45;2.40;;;0.43;;
54412;SDS011;41533;51.390;0.074;2023-03-31T14:06:31;0.95;;;0.40;;
54412;SDS011;41533;51.390;0.074;2023-03-31T14:09:07;1.15;;;0.60;;
54412;SDS011;41533;51.390;0.074;2023-03-31T14:11:35;0.45;;;0.43;;
54412;SDS011;41533;51.390;0.074;2023-03-31T14:16:32;0.73;;;0.60;;
54412;SDS011;41533;51.390;0.074;2023-03-31T14:21:57;2.83;;;0.65;;
54412;SDS011;41533;51.390;0.074;2023-03-31T14:29:40;0.63;;;0.40;;
54412;SDS011;41533;51.390;0.074;2023-03-31T14:37:36;0.88;;;0.50;;
54412;SDS011;41533;51.390;0.074;2023-03-31T14:40:03;1.50;;;0.57;;
54412;SDS011;41533;51.390;0.074;2023-03-31T14:45:02;2.95;;;0.65;;
54412;SDS011;41533;51.390;0.074;2023-03-31T14:47:32;1.67;;;0.63;;
54412;SDS011;41533;51.390;0.074;2023-03-31T14:50:12;0.32;;;0.32;;
54412;SDS011;41533;51.390;0.074;2023-03-31T14:52:45;0.28;;;0.28;;
54412;SDS011;41533;51.390;0.074;2023-03-31T14:55:13;0.55;;;0.55;;
54412;SDS011;41533;51.390;0.074;2023-03-31T14:57:41;1.27;;;0.50;;
54412;SDS011;41533;51.390;0.074;2023-03-31T15:00:10;0.40;;;0.40;;
54412;SDS011;41533;51.390;0.074;2023-03-31T15:02:40;1.70;;;0.43;;
54412;SDS011;41533;51.390;0.074;2023-03-31T15:05:09;0.50;;;0.50;;
54412;SDS011;41533;51.390;0.074;2023-03-31T15:07:41;0.30;;;0.30;;
54412;SDS011;41533;51.390;0.074;2023-03-31T15:10:11;0.52;;;0.45;;
54412;SDS011;41533;51.390;0.074;2023-03-31T15:12:39;2.20;;;0.60;;
54412;SDS011;41533;51.390;0.074;2023-03-31T15:15:06;2.05;;;0.63;;
54412;SDS011;41533;51.390;0.074;2023-03-31T15:17:36;0.70;;;0.40;;
54412;SDS011;41533;51.390;0.074;2023-03-31T15:22:49;1.08;;;0.50;;
54412;SDS011;41533;51.390;0.074;2023-03-31T15:25:17;1.55;;;0.38;;
54412;SDS011;41533;51.390;0.074;2023-03-31T15:27:49;0.65;;;0.50;;
54412;SDS011;41533;51.390;0.074;2023-03-31T15:30:20;0.65;;;0.40;;
54412;SDS011;41533;51.390;0.074;2023-03-31T15:32:49;1.40;;;0.57;;
54412;SDS011;41533;51.390;0.074;2023-03-31T15:35:24;0.68;;;0.43;;
54412;SDS011;41533;51.390;0.074;2023-03-31T15:37:53;0.47;;;0.43;;
54412;SDS011;41533;51.390;0.074;2023-03-31T15:40:29;0.60;;;0.40;;
54412;SDS011;41533;51.390;0.074;2023-03-31T15:43:05;2.53;;;0.73;;
54412;SDS011;41533;51.390;0.074;2023-03-31T15:50:51;0.68;;;0.65;;
54412;SDS011;41533;51.390;0.074;2023-03-31T15:53:26;0.88;;;0.30;;
54412;SDS011;41533;51.390;0.074;2023-03-31T15:55:55;0.30;;;0.30;;
54412;SDS011;41533;51.390;0.074;2023-03-31T15:58:23;2.15;;;0.60;;
54412;SDS011;41533;51.390;0.074;2023-03-31T16:00:52;1.08;;;0.50;;
54412;SDS011;41533;51.390;0.074;2023-03-31T16:03:33;0.88;;;0.40;;
54412;SDS011;41533;51.390;0.074;2023-03-31T16:06:14;0.75;;;0.50;;
54412;SDS011;41533;51.390;0.074;2023-03-31T16:08:46;0.40;;;0.40;;
54412;SDS011;41533;51.390;0.074;2023-03-31T16:11:18;0.50;;;0.45;;
54412;SDS011;41533;51.390;0.074;2023-03-31T16:13:49;2.63;;;0.70;;
54412;SDS011;41533;51.390;0.074;2023-03-31T16:16:17;1.05;;;0.80;;
54412;SDS011;41533;51.390;0.074;2023-03-31T16:18:49;0.73;;;0.50;;
54412;SDS011;41533;51.390;0.074;2023-03-31T16:21:21;0.98;;;0.47;;
54412;SDS011;41533;51.390;0.074;2023-03-31T16:23:54;0.60;;;0.60;;
54412;SDS011;41533;51.390;0.074;2023-03-31T16:26:23;0.95;;;0.73;;
54412;SDS011;41533;51.390;0.074;2023-03-31T16:28:52;0.88;;;0.45;;
54412;SDS011;41533;51.390;0.074;2023-03-31T16:31:30;0.40;;;0.40;;
54412;SDS011;41533;51.390;0.074;2023-03-31T16:34:00;1.40;;;0.38;;
54412;SDS011;41533;51.390;0.074;2023-03-31T16:36:28;0.40;;;0.40;;
54412;SDS011;41533;51.390;0.074;2023-03-31T16:38:55;0.60;;;0.60;;
54412;SDS011;41533;51.390;0.074;2023-03-31T16:41:29;1.02;;;0.40;;
54412;SDS011;41533;51.390;0.074;2023-03-31T16:43:57;0.90;;;0.40;;
54412;SDS011;41533;51.390;0.074;2023-03-31T16:46:24;1.17;;;0.40;;
54412;SDS011;41533;51.390;0.074;2023-03-31T16:48:52;0.68;;;0.55;;
54412;SDS011;41533;51.390;0.074;2023-03-31T16:51:19;1.33;;;0.50;;
54412;SDS011;41533;51.390;0.074;2023-03-31T16:53:47;0.57;;;0.52;;
54412;SDS011;41533;51.390;0.074;2023-03-31T16:56:14;2.35;;;0.40;;
54412;SDS011;41533;51.390;0.074;2023-03-31T16:58:41;2.83;;;0.50;;
54412;SDS011;41533;51.390;0.074;2023-03-31T17:01:10;0.52;;;0.47;;
54412;SDS011;41533;51.390;0.074;2023-03-31T17:03:37;0.65;;;0.50;;
54412;SDS011;41533;51.390;0.074;2023-03-31T17:06:11;0.47;;;0.32;;
54412;SDS011;41533;51.390;0.074;2023-03-31T17:08:38;0.73;;;0.40;;
54412;SDS011;41533;51.390;0.074;2023-03-31T17:11:07;0.35;;;0.30;;
54412;SDS011;41533;51.390;0.074;2023-03-31T17:13:37;0.38;;;0.35;;
54412;SDS011;41533;51.390;0.074;2023-03-31T17:16:05;0.70;;;0.57;;
54412;SDS011;41533;51.390;0.074;2023-03-31T17:18:44;1.05;;;0.57;;
54412;SDS011;41533;51.390;0.074;2023-03-31T17:21:13;0.43;;;0.43;;
54412;SDS011;41533;51.390;0.074;2023-03-31T17:23:41;1.63;;;0.57;;
54412;SDS011;41533;51.390;0.074;2023-03-31T17:26:09;0.47;;;0.47;;
54412;SDS011;41533;51.390;0.074;2023-03-31T17:28:36;0.65;;;0.43;;
54412;SDS011;41533;51.390;0.074;2023-03-31T17:31:14;0.40;;;0.40;;
54412;SDS011;41533;51.390;0.074;2023-03-31T17:33:42;0.60;;;0.47;;
54412;SDS011;41533;51.390;0.074;2023-03-31T17:36:10;0.38;;;0.38;;
54412;SDS011;41533;51.390;0.074;2023-03-31T17:38:37;1.25;;;0.50;;
54412;SDS011;41533;51.390;0.074;2023-03-31T17:41:06;1.17;;;0.57;;
54412;SDS011;41533;51.390;0.074;2023-03-31T17:43:34;3.20;;;0.40;;
54412;SDS011;41533;51.390;0.074;2023-03-31T17:46:05;0.40;;;0.40;;